Terminal Aerodrome Forecast
Issued by NWS

Home | Current Version | Previous Version | Text Only | Print | Product List | Glossary On
Versions: 1 2 3 4 5 6 7 8 9 10 11 12
309
FTUS46 KSGX 192339
TAFTRM
TAF
KTRM 192339Z 2000/2024 15006KT P6SM SKC
     FM200200 33012G20KT P6SM FEW200
     FM202200 33015G30KT P6SM SKC=

USA.gov is the U.S. government's official web portal to all federal, state and local government web resources and services.